Diehlstadt, Missouri
Current Conditions -  °F | °C
As of 1:15 AM on Thursday 23 Oct 2014 (Local Time) from KCIR Reporting Station
Moderate Fog Moderate Fog  
Wind Chill: 41°   Ceiling: 500
Heat Index: 41°   Visibility: 0.5mi
Dew Point: 38°   Wind: 0mph
Humidity: 89%   Direction: NA
Pressure: 30.23"   Gusts: NA
Location:  36.9188°N, 89.2741°W
Report Text: KCIR 230615Z AUTO 00000KT 1/2SM FG VV005 05/04 A3023 RMK AO2 T00510035
Loading
Personal Weather Stations






























Interactive Weather Map
Tropical Storm Tracking
New forecast layout! Learn more

10-Day Weather Forecast

Advertisements
Track Severe Weather on mobile